Time,TemperatureF,DewpointF,PressureIn,WindDirection,WindDirectionDegrees,WindSpeedMPH,WindSpeedGustMPH,Humidity,HourlyPrecipIn,Conditions,Clouds,dailyrainin,SolarRadiationWatts/m^2,SoftwareType,DateUTC
2013-10-08 00:01:00,75.5,0.0,29.77,South,182,3.0,3.0,0,0.00,,BKN,0.19,0.00,VWS V14.01,2013-10-08 04:01:00,
2013-10-08 00:02:00,75.5,0.0,29.77,South,183,3.0,5.0,0,0.00,,BKN,0.00,0.00,VWS V14.01,2013-10-08 04:02:00,
2013-10-08 00:07:00,75.4,0.0,29.77,SSW,201,4.0,5.0,0,0.00,,BKN,0.00,0.00,VWS V14.01,2013-10-08 04:07:00,
2013-10-08 00:12:00,75.4,0.0,29.78,SSW,208,2.0,4.0,0,0.00,,BKN,0.00,0.00,VWS V14.01,2013-10-08 04:12:00,
2013-10-08 00:17:00,75.3,0.0,29.78,SSW,213,3.0,4.0,0,0.00,,BKN,0.00,0.00,VWS V14.01,2013-10-08 04:17:00,
2013-10-08 00:22:00,75.2,0.0,29.77,SSW,211,3.0,5.0,0,0.00,,BKN,0.00,0.00,VWS V14.01,2013-10-08 04:22:00,
2013-10-08 00:27:00,75.1,0.0,29.77,South,188,7.0,8.0,0,0.00,,BKN,0.00,0.00,VWS V14.01,2013-10-08 04:27:00,
2013-10-08 00:32:00,75.1,0.0,29.77,South,191,3.0,6.0,0,0.00,,BKN,0.00,0.00,VWS V14.01,2013-10-08 04:32:00,
2013-10-08 00:37:00,75.0,0.0,29.77,SW,214,2.0,2.0,0,0.00,,BKN,0.00,0.00,VWS V14.01,2013-10-08 04:37:00,
2013-10-08 00:42:00,75.0,0.0,29.77,SW,214,2.0,3.0,0,0.00,,BKN,0.00,0.00,VWS V14.01,2013-10-08 04:42:00,
2013-10-08 00:47:00,75.0,0.0,29.77,WSW,247,4.0,4.0,0,0.00,,BKN,0.00,0.00,VWS V14.01,2013-10-08 04:47:00,
2013-10-08 00:52:00,74.9,0.0,29.77,WSW,247,1.0,1.0,0,0.00,,BKN,0.00,0.00,VWS V14.01,2013-10-08 04:52:00,
2013-10-08 00:57:00,74.9,0.0,29.77,WSW,247,2.0,2.0,0,0.00,,BKN,0.00,0.00,VWS V14.01,2013-10-08 04:57:00,
2013-10-08 01:02:00,74.9,0.0,29.77,WSW,247,4.0,4.0,0,0.00,,BKN,0.00,0.00,VWS V14.01,2013-10-08 05:02:00,
2013-10-08 01:07:00,74.9,0.0,29.77,WSW,247,4.0,5.0,0,0.00,,BKN,0.00,0.00,VWS V14.01,2013-10-08 05:07:00,
2013-10-08 01:12:00,74.9,0.0,29.77,WSW,250,2.0,4.0,0,0.00,,BKN,0.00,0.00,VWS V14.01,2013-10-08 05:12:00,
2013-10-08 01:17:00,74.9,0.0,29.77,WSW,250,2.0,2.0,0,0.00,,BKN,0.00,0.00,VWS V14.01,2013-10-08 05:17:00,
2013-10-08 01:22:00,74.9,0.0,29.77,WSW,250,1.0,2.0,0,0.00,,BKN,0.00,0.00,VWS V14.01,2013-10-08 05:22:00,
2013-10-08 01:27:00,74.9,0.0,29.77,WSW,244,3.0,5.0,0,0.00,,BKN,0.00,0.00,VWS V14.01,2013-10-08 05:27:00,
2013-10-08 01:32:00,74.9,0.0,29.77,WSW,247,4.0,6.0,0,0.00,,BKN,0.00,0.00,VWS V14.01,2013-10-08 05:32:00,
2013-10-08 01:37:00,74.9,0.0,29.77,WSW,245,3.0,5.0,0,0.00,,BKN,0.00,0.00,VWS V14.01,2013-10-08 05:37:00,
2013-10-08 01:42:00,75.0,0.0,29.77,SW,218,3.0,6.0,0,0.00,,BKN,0.00,0.00,VWS V14.01,2013-10-08 05:42:00,
2013-10-08 01:47:00,75.0,0.0,29.77,SW,234,4.0,5.0,0,0.00,,BKN,0.00,0.00,VWS V14.01,2013-10-08 05:47:00,
2013-10-08 01:52:00,75.0,0.0,29.77,SW,234,3.0,5.0,0,0.00,,BKN,0.00,0.00,VWS V14.01,2013-10-08 05:52:00,
2013-10-08 01:57:00,75.0,0.0,29.77,SW,234,5.0,5.0,0,0.00,,BKN,0.00,0.00,VWS V14.01,2013-10-08 05:57:00,
2013-10-08 02:02:00,75.1,0.0,29.77,SW,234,2.0,5.0,0,0.00,,BKN,0.00,0.00,VWS V14.01,2013-10-08 06:02:00,
2013-10-08 02:07:00,75.1,0.0,29.77,SW,234,2.0,4.0,0,0.00,,BKN,0.00,0.00,VWS V14.01,2013-10-08 06:07:00,
2013-10-08 02:12:00,75.1,0.0,29.76,SW,234,1.0,3.0,0,0.00,,BKN,0.00,0.00,VWS V14.01,2013-10-08 06:12:00,
2013-10-08 02:17:00,75.0,0.0,29.76,SW,234,2.0,4.0,0,0.00,,BKN,0.00,0.00,VWS V14.01,2013-10-08 06:17:00,
2013-10-08 02:23:00,74.9,0.0,29.77,SW,234,2.0,3.0,0,0.00,,BKN,0.00,0.00,VWS V14.01,2013-10-08 06:23:00,
2013-10-08 02:28:00,74.9,0.0,29.76,SW,234,3.0,5.0,0,0.00,,BKN,0.00,0.00,VWS V14.01,2013-10-08 06:28:00,
2013-10-08 02:33:00,74.9,0.0,29.77,SW,234,4.0,5.0,0,0.00,,BKN,0.00,0.00,VWS V14.01,2013-10-08 06:33:00,
2013-10-08 02:38:00,74.9,0.0,29.77,West,264,4.0,4.0,0,0.00,,BKN,0.00,0.00,VWS V14.01,2013-10-08 06:38:00,
2013-10-08 02:43:00,74.9,0.0,29.77,West,261,2.0,2.0,0,0.00,,BKN,0.00,0.00,VWS V14.01,2013-10-08 06:43:00,
2013-10-08 02:48:00,75.0,0.0,29.77,West,261,1.0,2.0,0,0.00,,BKN,0.00,0.00,VWS V14.01,2013-10-08 06:48:00,
2013-10-08 02:53:00,74.9,0.0,29.77,West,261,2.0,2.0,0,0.00,,BKN,0.00,0.00,VWS V14.01,2013-10-08 06:53:00,
2013-10-08 02:58:00,74.9,0.0,29.76,West,261,2.0,3.0,0,0.00,,BKN,0.00,0.00,VWS V14.01,2013-10-08 06:58:00,
2013-10-08 03:03:00,74.9,0.0,29.76,West,261,2.0,3.0,0,0.00,,BKN,0.00,0.00,VWS V14.01,2013-10-08 07:03:00,
2013-10-08 03:08:00,74.9,0.0,29.76,West,261,1.0,1.0,0,0.00,,BKN,0.00,0.00,VWS V14.01,2013-10-08 07:08:00,
2013-10-08 03:13:00,74.9,0.0,29.76,West,261,1.0,3.0,0,0.00,,BKN,0.00,0.00,VWS V14.01,2013-10-08 07:13:00,
2013-10-08 03:18:00,74.9,0.0,29.76,West,261,1.0,2.0,0,0.00,,BKN,0.00,0.00,VWS V14.01,2013-10-08 07:18:00,
2013-10-08 03:29:00,74.9,0.0,29.76,West,261,1.0,1.0,0,0.00,,BKN,0.00,0.00,VWS V14.01,2013-10-08 07:29:00,
2013-10-08 03:34:00,74.9,0.0,29.76,West,261,1.0,2.0,0,0.00,,BKN,0.00,0.00,VWS V14.01,2013-10-08 07:34:00,
2013-10-08 03:39:00,74.9,0.0,29.76,West,261,3.0,4.0,0,0.00,,BKN,0.00,0.00,VWS V14.01,2013-10-08 07:39:00,
2013-10-08 03:44:00,74.9,0.0,29.76,West,261,1.0,2.0,0,0.00,,BKN,0.00,0.00,VWS V14.01,2013-10-08 07:44:00,
2013-10-08 03:49:00,74.9,0.0,29.76,West,261,2.0,4.0,0,0.00,,BKN,0.00,0.00,VWS V14.01,2013-10-08 07:49:00,
2013-10-08 03:54:00,74.9,0.0,29.76,West,261,2.0,2.0,0,0.00,,BKN,0.00,0.00,VWS V14.01,2013-10-08 07:54:00,
2013-10-08 03:59:00,74.8,0.0,29.76,West,261,1.0,2.0,0,0.00,,BKN,0.00,0.00,VWS V14.01,2013-10-08 07:59:00,
2013-10-08 04:04:00,74.8,0.0,29.76,West,261,3.0,5.0,0,0.00,,BKN,0.00,0.00,VWS V14.01,2013-10-08 08:04:00,
2013-10-08 04:09:00,74.8,0.0,29.76,West,261,2.0,2.0,0,0.00,,BKN,0.00,0.00,VWS V14.01,2013-10-08 08:09:00,
2013-10-08 04:14:00,74.7,0.0,29.76,West,261,1.0,3.0,0,0.00,,BKN,0.00,0.00,VWS V14.01,2013-10-08 08:14:00,
2013-10-08 04:19:00,74.7,0.0,29.76,West,261,5.0,5.0,0,0.00,,BKN,0.00,0.00,VWS V14.01,2013-10-08 08:19:00,
2013-10-08 04:24:00,74.7,0.0,29.76,SW,228,4.0,4.0,0,0.00,,BKN,0.00,0.00,VWS V14.01,2013-10-08 08:24:00,
2013-10-08 04:29:00,74.7,0.0,29.77,SW,228,5.0,5.0,0,0.00,,BKN,0.00,0.00,VWS V14.01,2013-10-08 08:29:00,
2013-10-08 04:34:00,74.6,0.0,29.76,SW,229,2.0,2.0,0,0.00,,BKN,0.00,0.00,VWS V14.01,2013-10-08 08:34:00,
2013-10-08 04:39:00,74.6,0.0,29.77,SW,228,3.0,4.0,0,0.00,,BKN,0.00,0.00,VWS V14.01,2013-10-08 08:39:00,
2013-10-08 04:44:00,74.6,0.0,29.76,SW,228,3.0,3.0,0,0.00,,BKN,0.00,0.00,VWS V14.01,2013-10-08 08:44:00,
2013-10-08 04:49:00,74.7,0.0,29.77,SW,228,4.0,4.0,0,0.00,,BKN,0.00,0.00,VWS V14.01,2013-10-08 08:49:00,
2013-10-08 04:54:00,74.7,0.0,29.77,SW,228,1.0,3.0,0,0.00,,BKN,0.00,0.00,VWS V14.01,2013-10-08 08:54:00,
2013-10-08 04:59:00,74.7,0.0,29.77,SW,229,2.0,4.0,0,0.00,,BKN,0.00,0.00,VWS V14.01,2013-10-08 08:59:00,
2013-10-08 05:04:00,74.7,0.0,29.77,SW,229,3.0,3.0,0,0.00,,BKN,0.00,0.00,VWS V14.01,2013-10-08 09:04:00,
2013-10-08 05:09:00,74.7,0.0,29.77,SW,229,1.0,3.0,0,0.00,,BKN,0.00,0.00,VWS V14.01,2013-10-08 09:09:00,
2013-10-08 05:14:00,74.7,0.0,29.77,SW,230,2.0,2.0,0,0.00,,BKN,0.00,0.00,VWS V14.01,2013-10-08 09:14:00,
2013-10-08 05:19:00,74.7,0.0,29.77,SW,232,3.0,4.0,0,0.00,,BKN,0.00,0.00,VWS V14.01,2013-10-08 09:19:00,
2013-10-08 05:24:00,74.6,0.0,29.77,WSW,248,5.0,5.0,0,0.00,,BKN,0.00,0.00,VWS V14.01,2013-10-08 09:24:00,
2013-10-08 05:29:00,74.6,0.0,29.77,West,267,3.0,5.0,0,0.00,,BKN,0.00,0.00,VWS V14.01,2013-10-08 09:29:00,
2013-10-08 05:34:00,74.6,0.0,29.77,West,266,0.0,2.0,0,0.00,,BKN,0.00,0.00,VWS V14.01,2013-10-08 09:34:00,
2013-10-08 05:39:00,74.5,0.0,29.77,West,266,3.0,3.0,0,0.00,,BKN,0.00,0.00,VWS V14.01,2013-10-08 09:39:00,
2013-10-08 05:44:00,74.5,0.0,29.77,WSW,239,3.0,4.0,0,0.00,,BKN,0.00,0.00,VWS V14.01,2013-10-08 09:44:00,
2013-10-08 05:49:00,74.5,0.0,29.77,WSW,248,3.0,4.0,0,0.00,,BKN,0.00,0.00,VWS V14.01,2013-10-08 09:49:00,
2013-10-08 05:54:00,74.5,0.0,29.78,WSW,237,6.0,7.0,0,0.00,,BKN,0.00,0.00,VWS V14.01,2013-10-08 09:54:00,
2013-10-08 05:59:00,74.5,0.0,29.78,WSW,239,2.0,3.0,0,0.00,,BKN,0.00,0.00,VWS V14.01,2013-10-08 09:59:00,
2013-10-08 06:04:00,74.6,0.0,29.78,WSW,238,3.0,4.0,0,0.00,,BKN,0.00,0.00,VWS V14.01,2013-10-08 10:04:00,
2013-10-08 06:09:00,74.6,0.0,29.78,WSW,242,4.0,5.0,0,0.00,,BKN,0.00,0.00,VWS V14.01,2013-10-08 10:09:00,
2013-10-08 06:14:00,74.5,0.0,29.78,WSW,241,2.0,5.0,0,0.00,,BKN,0.00,0.00,VWS V14.01,2013-10-08 10:14:00,
2013-10-08 06:19:00,74.5,0.0,29.78,WSW,238,5.0,5.0,0,0.00,,BKN,0.00,0.00,VWS V14.01,2013-10-08 10:19:00,
2013-10-08 06:24:00,74.6,0.0,29.78,WSW,242,4.0,4.0,0,0.00,,BKN,0.00,0.00,VWS V14.01,2013-10-08 10:24:00,
2013-10-08 06:29:00,74.5,0.0,29.78,WSW,247,6.0,6.0,0,0.00,,BKN,0.00,0.00,VWS V14.01,2013-10-08 10:29:00,
2013-10-08 06:34:00,74.5,0.0,29.78,West,261,4.0,4.0,0,0.00,,BKN,0.00,0.00,VWS V14.01,2013-10-08 10:34:00,
2013-10-08 06:39:00,74.6,0.0,29.78,WSW,244,2.0,3.0,0,0.00,,BKN,0.00,0.00,VWS V14.01,2013-10-08 10:39:00,
2013-10-08 06:44:00,74.6,0.0,29.78,WSW,242,4.0,7.0,0,0.00,,BKN,0.00,0.00,VWS V14.01,2013-10-08 10:44:00,
2013-10-08 06:49:00,74.6,0.0,29.78,WSW,246,2.0,4.0,0,0.00,,BKN,0.00,0.00,VWS V14.01,2013-10-08 10:49:00,
2013-10-08 06:54:00,74.6,0.0,29.78,West,260,4.0,4.0,0,0.00,,BKN,0.00,0.00,VWS V14.01,2013-10-08 10:54:00,
2013-10-08 06:59:00,74.6,0.0,29.78,West,263,5.0,6.0,0,0.00,,BKN,0.00,0.00,VWS V14.01,2013-10-08 10:59:00,
2013-10-08 07:04:00,74.6,0.0,29.79,West,261,4.0,5.0,0,0.00,,BKN,0.00,0.00,VWS V14.01,2013-10-08 11:04:00,
2013-10-08 07:09:00,74.7,0.0,29.79,West,259,4.0,4.0,0,0.00,,BKN,0.00,0.00,VWS V14.01,2013-10-08 11:09:00,
2013-10-08 07:14:00,74.7,0.0,29.79,West,261,5.0,5.0,0,0.00,,BKN,0.00,0.00,VWS V14.01,2013-10-08 11:14:00,
2013-10-08 07:19:00,74.7,0.0,29.79,West,278,4.0,4.0,0,0.00,,BKN,0.00,0.00,VWS V14.01,2013-10-08 11:19:00,
2013-10-08 07:24:00,74.7,0.0,29.79,WSW,251,4.0,4.0,0,0.00,,BKN,0.00,0.00,VWS V14.01,2013-10-08 11:24:00,
2013-10-08 07:29:00,74.7,0.0,29.79,West,259,5.0,6.0,0,0.00,,BKN,0.00,0.00,VWS V14.01,2013-10-08 11:29:00,
2013-10-08 07:34:00,74.7,0.0,29.79,West,262,4.0,6.0,0,0.00,,BKN,0.00,7.00,VWS V14.01,2013-10-08 11:34:00,
2013-10-08 07:39:00,74.6,0.0,29.80,West,263,4.0,4.0,0,0.00,,BKN,0.00,11.00,VWS V14.01,2013-10-08 11:39:00,
2013-10-08 07:44:00,74.6,0.0,29.79,West,266,4.0,5.0,0,0.00,,BKN,0.00,16.00,VWS V14.01,2013-10-08 11:44:00,
2013-10-08 07:49:00,74.5,0.0,29.79,West,266,3.0,6.0,0,0.00,,BKN,0.00,25.00,VWS V14.01,2013-10-08 11:49:00,
2013-10-08 07:54:00,74.6,0.0,29.80,West,267,3.0,6.0,0,0.00,,BKN,0.00,33.00,VWS V14.01,2013-10-08 11:54:00,
2013-10-08 07:59:00,74.6,0.0,29.80,West,265,5.0,6.0,0,0.00,,BKN,0.00,42.00,VWS V14.01,2013-10-08 11:59:00,
2013-10-08 08:04:00,74.6,0.0,29.80,West,265,4.0,5.0,0,0.00,,BKN,0.00,33.00,VWS V14.01,2013-10-08 12:04:00,
2013-10-08 08:09:00,74.7,0.0,29.81,West,263,3.0,5.0,0,0.00,,BKN,0.00,23.00,VWS V14.01,2013-10-08 12:09:00,
2013-10-08 08:14:00,74.7,0.0,29.81,West,263,3.0,6.0,0,0.00,,BKN,0.00,47.00,VWS V14.01,2013-10-08 12:14:00,
2013-10-08 08:19:00,74.8,0.0,29.81,WSW,257,4.0,7.0,0,0.00,,BKN,0.00,70.00,VWS V14.01,2013-10-08 12:19:00,
2013-10-08 08:24:00,74.9,0.0,29.81,WSW,258,3.0,6.0,0,0.00,,BKN,0.00,51.00,VWS V14.01,2013-10-08 12:24:00,
2013-10-08 08:29:00,75.0,0.0,29.81,West,259,4.0,6.0,0,0.00,,BKN,0.00,62.00,VWS V14.01,2013-10-08 12:29:00,
2013-10-08 08:34:00,75.1,0.0,29.81,WSW,258,4.0,5.0,0,0.00,,BKN,0.00,100.00,VWS V14.01,2013-10-08 12:34:00,
2013-10-08 08:39:00,75.1,0.0,29.82,West,267,4.0,6.0,0,0.00,,BKN,0.00,90.00,VWS V14.01,2013-10-08 12:39:00,
2013-10-08 08:44:00,75.3,0.0,29.82,WSW,238,6.0,8.0,0,0.00,,BKN,0.00,139.00,VWS V14.01,2013-10-08 12:44:00,
2013-10-08 08:49:00,75.3,0.0,29.82,West,275,7.0,8.0,0,0.00,,BKN,0.00,148.00,VWS V14.01,2013-10-08 12:49:00,
2013-10-08 08:54:00,75.5,0.0,29.82,WSW,252,6.0,6.0,0,0.00,,BKN,0.00,95.00,VWS V14.01,2013-10-08 12:54:00,
2013-10-08 08:59:00,75.5,0.0,29.82,WSW,248,6.0,8.0,0,0.00,,BKN,0.00,90.00,VWS V14.01,2013-10-08 12:59:00,
2013-10-08 09:04:00,75.6,0.0,29.82,WSW,253,4.0,8.0,0,0.00,,BKN,0.00,111.00,VWS V14.01,2013-10-08 13:04:00,
2013-10-08 09:09:00,75.7,0.0,29.82,West,266,4.0,5.0,0,0.00,,BKN,0.00,93.00,VWS V14.01,2013-10-08 13:09:00,
2013-10-08 09:14:00,75.7,0.0,29.83,WSW,250,5.0,6.0,0,0.00,,BKN,0.00,72.00,VWS V14.01,2013-10-08 13:14:00,
2013-10-08 09:19:00,75.8,0.0,29.83,West,268,4.0,5.0,0,0.00,,BKN,0.00,116.00,VWS V14.01,2013-10-08 13:19:00,
2013-10-08 09:24:00,75.9,0.0,29.83,West,265,3.0,7.0,0,0.00,,BKN,0.00,125.00,VWS V14.01,2013-10-08 13:24:00,
2013-10-08 09:29:00,75.9,0.0,29.83,West,265,5.0,8.0,0,0.00,,BKN,0.00,144.00,VWS V14.01,2013-10-08 13:29:00,
2013-10-08 09:34:00,76.0,0.0,29.83,WNW,291,4.0,6.0,0,0.00,,BKN,0.00,174.00,VWS V14.01,2013-10-08 13:34:00,
2013-10-08 09:39:00,76.1,0.0,29.83,WNW,290,5.0,7.0,0,0.00,,BKN,0.00,162.00,VWS V14.01,2013-10-08 13:39:00,
2013-10-08 09:44:00,76.2,0.0,29.84,WSW,248,8.0,8.0,0,0.00,,BKN,0.00,257.00,VWS V14.01,2013-10-08 13:44:00,
2013-10-08 09:49:00,76.4,0.0,29.84,WNW,292,7.0,7.0,0,0.00,,BKN,0.00,192.00,VWS V14.01,2013-10-08 13:49:00,
2013-10-08 09:54:00,76.6,0.0,29.84,WNW,292,4.0,6.0,0,0.00,,BKN,0.00,199.00,VWS V14.01,2013-10-08 13:54:00,
2013-10-08 09:59:00,76.6,0.0,29.84,West,263,4.0,5.0,0,0.00,,BKN,0.00,193.00,VWS V14.01,2013-10-08 13:59:00,
2013-10-08 10:04:00,76.8,0.0,29.84,West,261,3.0,5.0,0,0.00,,BKN,0.00,524.00,VWS V14.01,2013-10-08 14:04:00,
2013-10-08 10:09:00,76.9,0.0,29.84,West,261,1.0,4.0,0,0.00,,BKN,0.00,211.00,VWS V14.01,2013-10-08 14:09:00,
2013-10-08 10:14:00,77.2,0.0,29.84,West,261,1.0,3.0,0,0.00,,BKN,0.00,374.00,VWS V14.01,2013-10-08 14:14:00,
2013-10-08 10:19:00,77.5,0.0,29.84,SW,217,3.0,5.0,0,0.00,,BKN,0.00,160.00,VWS V14.01,2013-10-08 14:19:00,
2013-10-08 10:24:00,77.6,0.0,29.85,NNW,341,8.0,8.0,0,0.01,,BKN,0.01,58.00,VWS V14.01,2013-10-08 14:24:00,
2013-10-08 10:29:00,77.3,0.0,29.85,NNW,338,4.0,5.0,0,0.01,,BKN,0.01,83.00,VWS V14.01,2013-10-08 14:29:00,
2013-10-08 10:34:00,77.1,0.0,29.85,North,5,5.0,6.0,0,0.01,,BKN,0.01,128.00,VWS V14.01,2013-10-08 14:34:00,
2013-10-08 10:39:00,77.2,0.0,29.85,North,5,5.0,5.0,0,0.01,,BKN,0.01,144.00,VWS V14.01,2013-10-08 14:39:00,
2013-10-08 10:44:00,77.1,0.0,29.85,North,5,5.0,5.0,0,0.01,,BKN,0.01,172.00,VWS V14.01,2013-10-08 14:44:00,
2013-10-08 10:49:00,76.9,0.0,29.85,North,5,8.0,8.0,0,0.01,,BKN,0.01,223.00,VWS V14.01,2013-10-08 14:49:00,
2013-10-08 10:54:00,77.0,0.0,29.85,NNW,343,5.0,10.0,0,0.01,,BKN,0.01,279.00,VWS V14.01,2013-10-08 14:54:00,
2013-10-08 10:59:00,77.5,0.0,29.85,North,360,5.0,10.0,0,0.01,,BKN,0.01,721.00,VWS V14.01,2013-10-08 14:59:00,
2013-10-08 11:04:00,78.7,0.0,29.85,NNW,340,6.0,9.0,0,0.01,,BKN,0.01,682.00,VWS V14.01,2013-10-08 15:04:00,
2013-10-08 11:09:00,79.3,0.0,29.85,NNW,339,6.0,10.0,0,0.01,,BKN,0.01,301.00,VWS V14.01,2013-10-08 15:09:00,
2013-10-08 11:14:00,79.4,0.0,29.86,NW,320,8.0,8.0,0,0.01,,BKN,0.01,234.00,VWS V14.01,2013-10-08 15:14:00,
2013-10-08 11:18:00,79.4,0.0,29.86,NW,319,9.0,9.0,0,0.01,,BKN,0.01,316.00,VWS V14.01,2013-10-08 15:18:00,
2013-10-08 11:23:00,79.7,0.0,29.86,NW,320,10.0,10.0,0,0.01,,BKN,0.01,251.00,VWS V14.01,2013-10-08 15:23:00,
2013-10-08 11:28:00,79.9,0.0,29.85,North,355,9.0,10.0,0,0.00,,BKN,0.01,309.00,VWS V14.01,2013-10-08 15:28:00,
2013-10-08 11:33:00,80.1,0.0,29.85,NW,325,7.0,7.0,0,0.00,,BKN,0.01,443.00,VWS V14.01,2013-10-08 15:33:00,
2013-10-08 11:39:00,80.4,0.0,29.85,NNW,342,2.0,6.0,0,0.00,,BKN,0.01,503.00,VWS V14.01,2013-10-08 15:39:00,
2013-10-08 11:43:00,80.9,0.0,29.85,NNW,342,7.0,8.0,0,0.00,,BKN,0.01,519.00,VWS V14.01,2013-10-08 15:43:00,
2013-10-08 11:48:00,81.1,0.0,29.85,NNW,336,9.0,10.0,0,0.00,,BKN,0.01,415.00,VWS V14.01,2013-10-08 15:48:00,
2013-10-08 11:53:00,81.5,0.0,29.85,NNW,345,8.0,8.0,0,0.00,,BKN,0.01,322.00,VWS V14.01,2013-10-08 15:53:00,
2013-10-08 11:58:00,81.7,0.0,29.85,North,5,8.0,9.0,0,0.00,,BKN,0.01,380.00,VWS V14.01,2013-10-08 15:58:00,
2013-10-08 12:03:00,81.8,0.0,29.85,NNW,346,8.0,11.0,0,0.00,,BKN,0.01,383.00,VWS V14.01,2013-10-08 16:03:00,
2013-10-08 12:08:00,82.0,0.0,29.84,North,355,8.0,9.0,0,0.00,,BKN,0.01,490.00,VWS V14.01,2013-10-08 16:08:00,
2013-10-08 12:13:00,82.3,0.0,29.85,NNW,348,5.0,9.0,0,0.00,,BKN,0.01,367.00,VWS V14.01,2013-10-08 16:13:00,
2013-10-08 12:18:00,82.2,0.0,29.85,North,11,10.0,13.0,0,0.00,,BKN,0.01,288.00,VWS V14.01,2013-10-08 16:18:00,
2013-10-08 12:23:00,82.0,0.0,29.85,North,5,11.0,13.0,0,0.00,,BKN,0.01,350.00,VWS V14.01,2013-10-08 16:23:00,
2013-10-08 12:28:00,81.8,0.0,29.85,NNW,342,7.0,9.0,0,0.00,,BKN,0.01,309.00,VWS V14.01,2013-10-08 16:28:00,
2013-10-08 12:33:00,81.8,0.0,29.85,North,9,7.0,11.0,0,0.00,,BKN,0.01,265.00,VWS V14.01,2013-10-08 16:33:00,
2013-10-08 12:38:00,81.8,0.0,29.85,NNW,338,5.0,12.0,0,0.00,,BKN,0.01,396.00,VWS V14.01,2013-10-08 16:38:00,
2013-10-08 12:43:00,81.8,0.0,29.85,NNE,13,13.0,14.0,0,0.00,,BKN,0.01,276.00,VWS V14.01,2013-10-08 16:43:00,
2013-10-08 12:48:00,81.7,0.0,29.85,North,355,8.0,9.0,0,0.00,,BKN,0.01,178.00,VWS V14.01,2013-10-08 16:48:00,
2013-10-08 12:53:00,81.4,0.0,29.85,North,360,9.0,13.0,0,0.00,,BKN,0.01,209.00,VWS V14.01,2013-10-08 16:53:00,
2013-10-08 12:58:00,81.3,0.0,29.84,North,5,12.0,12.0,0,0.00,,BKN,0.01,332.00,VWS V14.01,2013-10-08 16:58:00,
2013-10-08 13:03:00,81.4,0.0,29.84,North,355,9.0,12.0,0,0.00,,BKN,0.01,288.00,VWS V14.01,2013-10-08 17:03:00,
2013-10-08 13:08:00,81.4,0.0,29.84,North,360,11.0,13.0,0,0.00,,BKN,0.01,125.00,VWS V14.01,2013-10-08 17:08:00,
2013-10-08 13:13:00,81.4,0.0,29.84,North,5,3.0,9.0,0,0.00,,BKN,0.01,81.00,VWS V14.01,2013-10-08 17:13:00,
2013-10-08 13:18:00,81.2,0.0,29.84,North,355,8.0,10.0,0,0.00,,BKN,0.01,88.00,VWS V14.01,2013-10-08 17:18:00,
2013-10-08 13:23:00,80.8,0.0,29.85,North,360,12.0,12.0,0,0.00,,BKN,0.01,65.00,VWS V14.01,2013-10-08 17:23:00,
2013-10-08 13:28:00,80.5,0.0,29.85,North,355,7.0,10.0,0,0.00,,BKN,0.01,46.00,VWS V14.01,2013-10-08 17:28:00,
2013-10-08 13:33:00,80.4,0.0,29.84,North,350,8.0,11.0,0,0.01,,BKN,0.02,62.00,VWS V14.01,2013-10-08 17:33:00,
2013-10-08 13:38:00,80.1,0.0,29.84,NNW,348,10.0,14.0,0,0.03,,BKN,0.04,97.00,VWS V14.01,2013-10-08 17:38:00,
2013-10-08 13:43:00,79.8,0.0,29.84,NNW,346,7.0,11.0,0,0.04,,BKN,0.05,83.00,VWS V14.01,2013-10-08 17:43:00,
2013-10-08 13:48:00,79.5,0.0,29.84,North,11,10.0,12.0,0,0.05,,BKN,0.06,84.00,VWS V14.01,2013-10-08 17:48:00,
2013-10-08 13:53:00,79.3,0.0,29.84,NNW,346,10.0,12.0,0,0.05,,BKN,0.06,88.00,VWS V14.01,2013-10-08 17:53:00,
2013-10-08 13:58:00,79.3,0.0,29.83,NNW,341,13.0,13.0,0,0.05,,BKN,0.06,197.00,VWS V14.01,2013-10-08 17:58:00,
2013-10-08 14:03:00,79.3,0.0,29.84,NNW,331,11.0,11.0,0,0.05,,BKN,0.06,308.00,VWS V14.01,2013-10-08 18:03:00,
2013-10-08 14:08:00,79.5,0.0,29.83,NNW,344,9.0,12.0,0,0.05,,BKN,0.06,476.00,VWS V14.01,2013-10-08 18:08:00,
2013-10-08 14:13:00,80.0,0.0,29.84,NNW,344,8.0,12.0,0,0.05,,BKN,0.06,359.00,VWS V14.01,2013-10-08 18:13:00,
2013-10-08 14:18:00,80.0,0.0,29.83,North,355,11.0,12.0,0,0.05,,BKN,0.06,325.00,VWS V14.01,2013-10-08 18:18:00,
2013-10-08 14:23:00,80.1,0.0,29.83,North,355,11.0,12.0,0,0.05,,BKN,0.06,243.00,VWS V14.01,2013-10-08 18:23:00,
2013-10-08 14:28:00,80.1,0.0,29.83,North,355,11.0,11.0,0,0.05,,BKN,0.06,269.00,VWS V14.01,2013-10-08 18:28:00,
2013-10-08 14:33:00,80.2,0.0,29.83,North,355,8.0,10.0,0,0.04,,BKN,0.06,285.00,VWS V14.01,2013-10-08 18:33:00,
2013-10-08 14:38:00,80.3,0.0,29.83,NNE,26,9.0,9.0,0,0.02,,BKN,0.06,221.00,VWS V14.01,2013-10-08 18:38:00,
2013-10-08 14:43:00,80.5,0.0,29.83,North,355,5.0,7.0,0,0.01,,BKN,0.06,274.00,VWS V14.01,2013-10-08 18:43:00,
2013-10-08 14:48:00,80.3,0.0,29.84,NNW,329,17.0,17.0,0,0.00,,BKN,0.06,58.00,VWS V14.01,2013-10-08 18:48:00,
2013-10-08 14:53:00,79.4,0.0,29.83,North,360,12.0,16.0,0,0.00,,BKN,0.06,135.00,VWS V14.01,2013-10-08 18:53:00,
2013-10-08 14:58:00,78.9,0.0,29.83,North,5,14.0,18.0,0,0.00,,BKN,0.06,148.00,VWS V14.01,2013-10-08 18:58:00,
2013-10-08 15:03:00,77.9,0.0,29.84,NNW,334,13.0,18.0,0,0.00,,BKN,0.06,79.00,VWS V14.01,2013-10-08 19:03:00,
2013-10-08 15:08:00,77.7,0.0,29.83,NNW,329,13.0,17.0,0,0.01,,BKN,0.07,79.00,VWS V14.01,2013-10-08 19:08:00,
2013-10-08 15:13:00,77.0,0.0,29.84,NW,312,17.0,19.0,0,0.01,,BKN,0.07,111.00,VWS V14.01,2013-10-08 19:13:00,
2013-10-08 15:18:00,75.9,0.0,29.84,North,355,9.0,13.0,0,0.01,,BKN,0.07,58.00,VWS V14.01,2013-10-08 19:18:00,
2013-10-08 15:23:00,76.0,0.0,29.84,WNW,301,13.0,15.0,0,0.02,,BKN,0.08,56.00,VWS V14.01,2013-10-08 19:23:00,
2013-10-08 15:28:00,76.8,0.0,29.84,NNW,340,15.0,16.0,0,0.03,,BKN,0.09,32.00,VWS V14.01,2013-10-08 19:28:00,
2013-10-08 15:33:00,76.8,0.0,29.84,NNE,15,15.0,22.0,0,0.03,,BKN,0.09,32.00,VWS V14.01,2013-10-08 19:33:00,
2013-10-08 15:38:00,76.9,0.0,29.84,NNW,329,14.0,15.0,0,0.03,,BKN,0.09,40.00,VWS V14.01,2013-10-08 19:38:00,
2013-10-08 15:43:00,76.8,0.0,29.84,North,355,13.0,16.0,0,0.03,,BKN,0.09,53.00,VWS V14.01,2013-10-08 19:43:00,
2013-10-08 15:48:00,76.7,0.0,29.85,North,355,14.0,16.0,0,0.03,,BKN,0.09,63.00,VWS V14.01,2013-10-08 19:48:00,
2013-10-08 15:53:00,76.7,0.0,29.85,NNW,327,11.0,14.0,0,0.03,,BKN,0.09,67.00,VWS V14.01,2013-10-08 19:53:00,
2013-10-08 15:58:00,76.5,0.0,29.85,NNW,327,15.0,15.0,0,0.03,,BKN,0.09,42.00,VWS V14.01,2013-10-08 19:58:00,
2013-10-08 16:03:00,76.5,0.0,29.86,NW,325,11.0,11.0,0,0.03,,BKN,0.09,33.00,VWS V14.01,2013-10-08 20:03:00,
2013-10-08 16:08:00,76.3,0.0,29.86,North,351,8.0,14.0,0,0.02,,BKN,0.09,23.00,VWS V14.01,2013-10-08 20:08:00,
2013-10-08 16:13:00,76.1,0.0,29.86,NNW,332,13.0,13.0,0,0.03,,BKN,0.10,37.00,VWS V14.01,2013-10-08 20:13:00,
2013-10-08 16:18:00,76.2,0.0,29.86,North,360,11.0,17.0,0,0.03,,BKN,0.10,42.00,VWS V14.01,2013-10-08 20:18:00,
2013-10-08 16:23:00,77.0,0.0,29.86,NNE,24,16.0,17.0,0,0.02,,BKN,0.10,32.00,VWS V14.01,2013-10-08 20:23:00,
2013-10-08 16:28:00,77.6,0.0,29.86,NNW,343,15.0,21.0,0,0.01,,BKN,0.10,28.00,VWS V14.01,2013-10-08 20:28:00,
2013-10-08 16:33:00,77.6,0.0,29.86,NNW,343,21.0,21.0,0,0.01,,BKN,0.10,30.00,VWS V14.01,2013-10-08 20:33:00,
2013-10-08 16:38:00,77.5,0.0,29.86,North,11,23.0,28.0,0,0.02,,BKN,0.11,21.00,VWS V14.01,2013-10-08 20:38:00,
2013-10-08 16:43:00,77.2,0.0,29.86,North,5,24.0,24.0,0,0.02,,BKN,0.11,25.00,VWS V14.01,2013-10-08 20:43:00,
2013-10-08 16:48:00,77.2,0.0,29.86,North,349,11.0,17.0,0,0.02,,BKN,0.11,25.00,VWS V14.01,2013-10-08 20:48:00,
2013-10-08 16:53:00,77.3,0.0,29.86,NNW,333,20.0,20.0,0,0.03,,BKN,0.12,23.00,VWS V14.01,2013-10-08 20:53:00,
2013-10-08 16:58:00,77.1,0.0,29.86,North,5,12.0,19.0,0,0.03,,BKN,0.12,26.00,VWS V14.01,2013-10-08 20:58:00,
2013-10-08 17:03:00,77.1,0.0,29.86,North,355,18.0,18.0,0,0.04,,BKN,0.13,26.00,VWS V14.01,2013-10-08 21:03:00,
2013-10-08 17:08:00,77.0,0.0,29.86,NNW,327,16.0,26.0,0,0.04,,BKN,0.13,26.00,VWS V14.01,2013-10-08 21:08:00,
2013-10-08 17:13:00,77.0,0.0,29.86,NNE,24,14.0,16.0,0,0.04,,BKN,0.14,23.00,VWS V14.01,2013-10-08 21:13:00,
2013-10-08 17:18:00,76.9,0.0,29.87,North,9,17.0,24.0,0,0.06,,BKN,0.16,21.00,VWS V14.01,2013-10-08 21:18:00,
2013-10-08 17:23:00,76.9,0.0,29.87,North,5,16.0,18.0,0,0.08,,BKN,0.18,46.00,VWS V14.01,2013-10-08 21:23:00,
2013-10-08 17:28:00,76.9,0.0,29.87,North,360,15.0,15.0,0,0.09,,BKN,0.19,32.00,VWS V14.01,2013-10-08 21:28:00,
2013-10-08 17:33:00,77.0,0.0,29.86,North,355,15.0,17.0,0,0.09,,BKN,0.19,54.00,VWS V14.01,2013-10-08 21:33:00,
2013-10-08 17:38:00,76.9,0.0,29.87,North,350,10.0,14.0,0,0.08,,BKN,0.19,37.00,VWS V14.01,2013-10-08 21:38:00,
2013-10-08 17:43:00,76.8,0.0,29.87,NNW,333,17.0,17.0,0,0.08,,BKN,0.19,39.00,VWS V14.01,2013-10-08 21:43:00,
2013-10-08 17:48:00,76.9,0.0,29.88,NNW,334,15.0,18.0,0,0.08,,BKN,0.19,35.00,VWS V14.01,2013-10-08 21:48:00,
2013-10-08 17:53:00,76.8,0.0,29.88,NNW,342,22.0,22.0,0,0.07,,BKN,0.19,37.00,VWS V14.01,2013-10-08 21:53:00,
2013-10-08 17:58:00,76.6,0.0,29.88,North,355,19.0,19.0,0,0.07,,BKN,0.19,42.00,VWS V14.01,2013-10-08 21:58:00,
2013-10-08 18:03:00,76.7,0.0,29.88,NW,326,23.0,23.0,0,0.06,,BKN,0.19,26.00,VWS V14.01,2013-10-08 22:03:00,
2013-10-08 18:08:00,76.7,0.0,29.88,North,355,18.0,23.0,0,0.06,,BKN,0.19,33.00,VWS V14.01,2013-10-08 22:08:00,
2013-10-08 18:13:00,76.7,0.0,29.88,NNW,342,12.0,17.0,0,0.05,,BKN,0.19,18.00,VWS V14.01,2013-10-08 22:13:00,
2013-10-08 18:18:00,76.7,0.0,29.88,NNW,342,19.0,21.0,0,0.03,,BKN,0.19,16.00,VWS V14.01,2013-10-08 22:18:00,
2013-10-08 18:23:00,76.6,0.0,29.88,North,355,15.0,17.0,0,0.01,,BKN,0.19,21.00,VWS V14.01,2013-10-08 22:23:00,
2013-10-08 18:28:00,76.7,0.0,29.88,North,360,14.0,19.0,0,0.00,,BKN,0.19,26.00,VWS V14.01,2013-10-08 22:28:00,
2013-10-08 18:33:00,76.7,0.0,29.89,NNW,346,13.0,15.0,0,0.00,,BKN,0.19,11.00,VWS V14.01,2013-10-08 22:33:00,
2013-10-08 18:38:00,76.8,0.0,29.89,NNW,342,19.0,19.0,0,0.00,,BKN,0.19,14.00,VWS V14.01,2013-10-08 22:38:00,
2013-10-08 18:43:00,76.8,0.0,29.89,North,355,10.0,16.0,0,0.00,,BKN,0.19,14.00,VWS V14.01,2013-10-08 22:43:00,
2013-10-08 18:48:00,76.8,0.0,29.89,NNW,339,14.0,18.0,0,0.00,,BKN,0.19,9.00,VWS V14.01,2013-10-08 22:48:00,
2013-10-08 18:53:00,76.8,0.0,29.89,NNW,342,14.0,15.0,0,0.00,,BKN,0.19,7.00,VWS V14.01,2013-10-08 22:53:00,
2013-10-08 18:58:00,76.8,0.0,29.89,NNW,347,20.0,20.0,0,0.00,,BKN,0.19,5.00,VWS V14.01,2013-10-08 22:58:00,
2013-10-08 19:03:00,76.9,0.0,29.89,North,9,14.0,15.0,0,0.00,,BKN,0.19,5.00,VWS V14.01,2013-10-08 23:03:00,
2013-10-08 19:08:00,76.7,0.0,29.89,North,351,18.0,18.0,0,0.00,,BKN,0.19,0.00,VWS V14.01,2013-10-08 23:08:00,
2013-10-08 19:13:00,76.7,0.0,29.89,North,350,15.0,22.0,0,0.00,,BKN,0.19,0.00,VWS V14.01,2013-10-08 23:13:00,
2013-10-08 19:18:00,76.7,0.0,29.89,NNW,327,15.0,15.0,0,0.00,,BKN,0.19,0.00,VWS V14.01,2013-10-08 23:18:00,
2013-10-08 19:23:00,76.5,0.0,29.89,NNW,337,15.0,21.0,0,0.00,,BKN,0.19,0.00,VWS V14.01,2013-10-08 23:23:00,
2013-10-08 19:28:00,76.5,0.0,29.90,North,355,18.0,18.0,0,0.00,,BKN,0.19,0.00,VWS V14.01,2013-10-08 23:28:00,
2013-10-08 19:33:00,76.5,0.0,29.90,NW,326,15.0,18.0,0,0.00,,BKN,0.19,0.00,VWS V14.01,2013-10-08 23:33:00,
2013-10-08 19:38:00,76.5,0.0,29.90,North,351,20.0,20.0,0,0.00,,BKN,0.19,0.00,VWS V14.01,2013-10-08 23:38:00,
2013-10-08 19:43:00,76.4,0.0,29.89,North,5,17.0,17.0,0,0.00,,BKN,0.19,0.00,VWS V14.01,2013-10-08 23:43:00,
2013-10-08 19:48:00,76.3,0.0,29.90,North,9,17.0,20.0,0,0.00,,BKN,0.19,0.00,VWS V14.01,2013-10-08 23:48:00,
2013-10-08 19:53:00,76.3,0.0,29.90,North,5,22.0,22.0,0,0.00,,BKN,0.19,0.00,VWS V14.01,2013-10-08 23:53:00,
2013-10-08 19:58:00,76.4,0.0,29.90,NNW,336,14.0,16.0,0,0.00,,BKN,0.19,0.00,VWS V14.01,2013-10-08 23:58:00,
2013-10-08 20:03:00,76.3,0.0,29.90,NNW,342,11.0,19.0,0,0.00,,BKN,0.19,0.00,VWS V14.01,2013-10-09 00:03:00,
2013-10-08 20:08:00,76.4,0.0,29.90,NNW,341,19.0,19.0,0,0.00,,BKN,0.19,0.00,VWS V14.01,2013-10-09 00:08:00,
2013-10-08 20:13:00,76.4,0.0,29.90,NNW,344,18.0,20.0,0,0.00,,BKN,0.19,0.00,VWS V14.01,2013-10-09 00:13:00,
2013-10-08 20:18:00,76.2,0.0,29.90,North,355,13.0,18.0,0,0.00,,BKN,0.19,0.00,VWS V14.01,2013-10-09 00:18:00,
2013-10-08 20:23:00,76.2,0.0,29.91,NNW,336,18.0,23.0,0,0.00,,BKN,0.19,0.00,VWS V14.01,2013-10-09 00:23:00,
2013-10-08 20:28:00,76.3,0.0,29.90,NNW,346,19.0,19.0,0,0.00,,BKN,0.19,0.00,VWS V14.01,2013-10-09 00:28:00,
2013-10-08 20:33:00,76.2,0.0,29.91,NNW,348,17.0,22.0,0,0.00,,BKN,0.19,0.00,VWS V14.01,2013-10-09 00:33:00,
2013-10-08 20:38:00,76.2,0.0,29.91,North,5,23.0,23.0,0,0.00,,BKN,0.19,0.00,VWS V14.01,2013-10-09 00:38:00,
2013-10-08 20:43:00,76.2,0.0,29.91,North,355,18.0,21.0,0,0.00,,BKN,0.19,0.00,VWS V14.01,2013-10-09 00:43:00,
2013-10-08 20:48:00,76.1,0.0,29.92,NNW,327,13.0,13.0,0,0.00,,BKN,0.19,0.00,VWS V14.01,2013-10-09 00:48:00,
2013-10-08 20:53:00,76.1,0.0,29.92,North,355,30.0,30.0,0,0.01,,BKN,0.20,0.00,VWS V14.01,2013-10-09 00:53:00,
2013-10-08 20:58:00,75.9,0.0,29.92,North,355,14.0,14.0,0,0.01,,BKN,0.20,0.00,VWS V14.01,2013-10-09 00:58:00,
2013-10-08 21:03:00,75.7,0.0,29.92,NNE,22,13.0,14.0,0,0.01,,BKN,0.20,0.00,VWS V14.01,2013-10-09 01:03:00,
2013-10-08 21:08:00,75.5,0.0,29.92,North,360,19.0,19.0,0,0.01,,BKN,0.20,0.00,VWS V14.01,2013-10-09 01:08:00,
2013-10-08 21:13:00,75.3,0.0,29.93,NNW,339,12.0,18.0,0,0.02,,BKN,0.21,0.00,VWS V14.01,2013-10-09 01:13:00,
2013-10-08 21:18:00,75.3,0.0,29.92,NNW,348,18.0,21.0,0,0.02,,BKN,0.21,0.00,VWS V14.01,2013-10-09 01:18:00,
2013-10-08 21:23:00,75.0,0.0,29.92,North,355,27.0,27.0,0,0.02,,BKN,0.21,0.00,VWS V14.01,2013-10-09 01:23:00,
2013-10-08 21:28:00,75.0,0.0,29.92,NNW,336,18.0,24.0,0,0.02,,BKN,0.21,0.00,VWS V14.01,2013-10-09 01:28:00,
2013-10-08 21:33:00,75.0,0.0,29.92,NNW,348,18.0,22.0,0,0.02,,BKN,0.21,0.00,VWS V14.01,2013-10-09 01:33:00,
2013-10-08 21:38:00,75.0,0.0,29.93,North,5,23.0,23.0,0,0.02,,BKN,0.21,0.00,VWS V14.01,2013-10-09 01:38:00,
2013-10-08 21:43:00,75.0,0.0,29.93,North,350,17.0,22.0,0,0.03,,BKN,0.22,0.00,VWS V14.01,2013-10-09 01:43:00,
2013-10-08 21:48:00,74.9,0.0,29.93,North,5,15.0,25.0,0,0.03,,BKN,0.22,0.00,VWS V14.01,2013-10-09 01:48:00,
2013-10-08 21:53:00,74.9,0.0,29.93,NNW,348,16.0,21.0,0,0.02,,BKN,0.22,0.00,VWS V14.01,2013-10-09 01:53:00,
2013-10-08 21:58:00,75.0,0.0,29.93,North,355,18.0,27.0,0,0.02,,BKN,0.22,0.00,VWS V14.01,2013-10-09 01:58:00,
2013-10-08 22:03:00,75.1,0.0,29.93,North,360,16.0,22.0,0,0.02,,BKN,0.22,0.00,VWS V14.01,2013-10-09 02:03:00,
2013-10-08 22:08:00,75.0,0.0,29.93,North,355,23.0,23.0,0,0.02,,BKN,0.22,0.00,VWS V14.01,2013-10-09 02:08:00,
2013-10-08 22:13:00,75.1,0.0,29.94,NNE,16,19.0,19.0,0,0.01,,BKN,0.22,0.00,VWS V14.01,2013-10-09 02:13:00,
2013-10-08 22:18:00,75.1,0.0,29.94,North,351,18.0,24.0,0,0.01,,BKN,0.22,0.00,VWS V14.01,2013-10-09 02:18:00,
2013-10-08 22:23:00,75.2,0.0,29.94,North,11,26.0,34.0,0,0.01,,BKN,0.22,0.00,VWS V14.01,2013-10-09 02:23:00,
2013-10-08 22:28:00,74.9,0.0,29.94,NNW,345,14.0,31.0,0,0.01,,BKN,0.22,0.00,VWS V14.01,2013-10-09 02:28:00,
2013-10-08 22:33:00,75.1,0.0,29.94,NNW,346,12.0,16.0,0,0.01,,BKN,0.22,0.00,VWS V14.01,2013-10-09 02:33:00,
2013-10-08 22:38:00,75.2,0.0,29.94,North,355,18.0,25.0,0,0.01,,BKN,0.22,0.00,VWS V14.01,2013-10-09 02:38:00,
2013-10-08 22:43:00,75.2,0.0,29.94,North,355,14.0,25.0,0,0.00,,BKN,0.22,0.00,VWS V14.01,2013-10-09 02:43:00,
2013-10-08 22:48:00,75.2,0.0,29.94,North,355,23.0,23.0,0,0.00,,BKN,0.22,0.00,VWS V14.01,2013-10-09 02:48:00,
2013-10-08 22:53:00,75.2,0.0,29.94,NNW,337,20.0,23.0,0,0.00,,BKN,0.22,0.00,VWS V14.01,2013-10-09 02:53:00,
2013-10-08 22:58:00,75.3,0.0,29.94,NNW,345,21.0,21.0,0,0.00,,BKN,0.22,0.00,VWS V14.01,2013-10-09 02:58:00,
2013-10-08 23:03:00,75.4,0.0,29.94,NNW,337,15.0,19.0,0,0.00,,BKN,0.22,0.00,VWS V14.01,2013-10-09 03:03:00,
2013-10-08 23:08:00,75.3,0.0,29.94,North,355,14.0,24.0,0,0.00,,BKN,0.22,0.00,VWS V14.01,2013-10-09 03:08:00,
2013-10-08 23:13:00,75.2,0.0,29.95,NNW,346,17.0,21.0,0,0.00,,BKN,0.22,0.00,VWS V14.01,2013-10-09 03:13:00,
2013-10-08 23:18:00,75.1,0.0,29.95,North,11,19.0,23.0,0,0.00,,BKN,0.22,0.00,VWS V14.01,2013-10-09 03:18:00,
2013-10-08 23:23:00,74.9,0.0,29.95,North,360,16.0,21.0,0,0.00,,BKN,0.22,0.00,VWS V14.01,2013-10-09 03:23:00,
2013-10-08 23:28:00,74.9,0.0,29.95,NNW,338,14.0,26.0,0,0.00,,BKN,0.22,0.00,VWS V14.01,2013-10-09 03:28:00,
2013-10-08 23:33:00,74.9,0.0,29.95,NNW,348,19.0,20.0,0,0.00,,BKN,0.22,0.00,VWS V14.01,2013-10-09 03:33:00,
2013-10-08 23:38:00,74.8,0.0,29.95,NNW,333,15.0,16.0,0,0.00,,BKN,0.22,0.00,VWS V14.01,2013-10-09 03:38:00,
2013-10-08 23:43:00,74.8,0.0,29.95,NNE,15,14.0,18.0,0,0.00,,BKN,0.22,0.00,VWS V14.01,2013-10-09 03:43:00,
2013-10-08 23:48:00,74.6,0.0,29.95,NNE,28,14.0,19.0,0,0.00,,BKN,0.22,0.00,VWS V14.01,2013-10-09 03:48:00,
2013-10-08 23:53:00,74.4,0.0,29.95,NNE,15,13.0,15.0,0,0.00,,BKN,0.22,0.00,VWS V14.01,2013-10-09 03:53:00,
2013-10-08 23:58:00,74.6,0.0,29.95,North,11,18.0,23.0,0,0.00,,BKN,0.22,0.00,VWS V14.01,2013-10-09 03:58:00,